Time;durP1;ratioP1;P1;durP2;ratioP2;P2;SDS_P1;SDS_P2;PMS_P1;PMS_P2;Temp;Humidity;BMP_temperature;BMP_pressure;BME280_temperature;BME280_humidity;BME280_pressure;Samples;Min_cycle;Max_cycle;Signal;HPM_P1;HPM_P2
2023/09/16 00:00:33;;;;;;;3.50;1.85;;;19.50;99.90;;;;;;4917422;29;20653;-71
2023/09/16 00:03:00;;;;;;;7.00;2.95;;;19.50;99.90;;;;;;4917687;29;20153;-71
2023/09/16 00:05:26;;;;;;;4.75;2.00;;;19.50;99.90;;;;;;4922640;29;20032;-72
2023/09/16 00:07:53;;;;;;;2.63;1.33;;;19.50;99.90;;;;;;4919857;29;20072;-71
2023/09/16 00:10:18;;;;;;;3.25;1.50;;;19.60;99.90;;;;;;4915702;29;20028;-71
2023/09/16 00:12:44;;;;;;;2.92;1.80;;;19.60;99.90;;;;;;4933385;29;20099;-71
2023/09/16 00:15:10;;;;;;;7.18;1.92;;;19.60;99.90;;;;;;4940004;29;20051;-71
2023/09/16 00:17:36;;;;;;;4.10;1.90;;;19.60;99.90;;;;;;4916361;29;20182;-71
2023/09/16 00:20:15;;;;;;;3.28;1.60;;;19.60;99.90;;;;;;4932262;29;20039;-71
2023/09/16 00:22:45;;;;;;;2.50;1.48;;;19.50;99.90;;;;;;4929973;29;20024;-71
2023/09/16 00:25:11;;;;;;;5.13;2.10;;;19.50;99.90;;;;;;4931515;29;20495;-71
2023/09/16 00:27:41;;;;;;;6.57;2.25;;;19.50;99.90;;;;;;4925695;29;20036;-71
2023/09/16 00:30:10;;;;;;;6.22;1.90;;;19.40;99.90;;;;;;4917385;29;20122;-71
2023/09/16 00:32:36;;;;;;;4.07;2.20;;;19.40;99.90;;;;;;4924745;29;20032;-71
2023/09/16 00:35:03;;;;;;;4.78;2.08;;;19.40;99.90;;;;;;4943334;28;20043;-71
2023/09/16 00:37:29;;;;;;;3.42;1.98;;;19.40;99.90;;;;;;4887879;29;20605;-71
2023/09/16 00:39:55;;;;;;;4.03;2.33;;;19.50;99.90;;;;;;4911565;29;20036;-71
2023/09/16 00:42:21;;;;;;;3.50;1.63;;;19.60;99.90;;;;;;4917244;29;20035;-71
2023/09/16 00:44:47;;;;;;;3.33;1.90;;;19.50;99.90;;;;;;4916570;29;20025;-71
2023/09/16 00:47:13;;;;;;;2.88;1.70;;;19.50;99.90;;;;;;4937084;29;20066;-71
2023/09/16 00:49:40;;;;;;;9.40;2.42;;;19.20;99.90;;;;;;4926001;29;20128;-71
2023/09/16 00:52:07;;;;;;;2.97;2.08;;;19.10;99.90;;;;;;4910423;29;20028;-70
2023/09/16 00:54:34;;;;;;;4.35;1.92;;;19.00;99.90;;;;;;4902244;29;20496;-71
2023/09/16 00:57:01;;;;;;;3.47;1.95;;;19.00;99.90;;;;;;4902754;29;20032;-71
2023/09/16 00:59:32;;;;;;;7.28;2.30;;;18.90;99.90;;;;;;4918953;29;20031;-71
2023/09/16 01:01:59;;;;;;;6.00;2.13;;;18.90;99.90;;;;;;4902025;29;20123;-70
2023/09/16 01:04:25;;;;;;;4.25;2.47;;;18.80;99.90;;;;;;4916353;29;20058;-71
2023/09/16 01:06:51;;;;;;;3.33;2.05;;;18.80;99.90;;;;;;4919355;29;20032;-71
2023/09/16 01:09:20;;;;;;;3.97;2.30;;;18.70;99.90;;;;;;4920194;29;20705;-71
2023/09/16 01:11:47;;;;;;;2.88;1.95;;;18.60;99.90;;;;;;4904624;29;20043;-71
2023/09/16 01:14:13;;;;;;;4.25;2.00;;;18.60;99.90;;;;;;4904512;29;20050;-71
2023/09/16 01:16:58;;;;;;;3.70;2.22;;;18.60;99.90;;;;;;4903447;29;20142;-71
2023/09/16 01:19:59;;;;;;;4.65;2.45;;;18.50;99.90;;;;;;4918053;29;20040;-72
2023/09/16 01:22:25;;;;;;;5.68;2.70;;;18.50;99.90;;;;;;4906179;29;20428;-70
2023/09/16 01:24:53;;;;;;;4.43;2.42;;;18.40;99.90;;;;;;4905458;29;20123;-71
2023/09/16 01:27:20;;;;;;;4.57;2.55;;;18.50;99.90;;;;;;4921460;29;20039;-71
2023/09/16 01:29:50;;;;;;;5.57;2.13;;;18.50;99.90;;;;;;4909134;29;20042;-69
2023/09/16 01:32:18;;;;;;;10.00;2.67;;;18.50;99.90;;;;;;4917710;29;20111;-70
2023/09/16 01:34:50;;;;;;;4.78;2.17;;;18.40;99.90;;;;;;4918268;29;20072;-70
2023/09/16 01:37:19;;;;;;;11.60;2.70;;;18.40;99.90;;;;;;4922247;29;20036;-70
2023/09/16 01:39:57;;;;;;;4.22;2.00;;;18.50;99.90;;;;;;4908445;29;20099;-70
2023/09/16 01:42:24;;;;;;;3.85;1.80;;;18.50;99.90;;;;;;4928027;29;20595;-70
2023/09/16 01:44:56;;;;;;;3.85;2.00;;;18.60;99.90;;;;;;4907417;29;20088;-69
2023/09/16 01:47:22;;;;;;;6.60;2.72;;;18.60;99.90;;;;;;4934078;29;20060;-70
2023/09/16 01:49:48;;;;;;;5.00;2.15;;;18.20;99.90;;;;;;4935310;28;20070;-71
2023/09/16 01:52:16;;;;;;;5.60;2.70;;;18.10;99.90;;;;;;4931758;29;20064;-70
2023/09/16 01:54:42;;;;;;;4.38;2.25;;;18.00;99.90;;;;;;4914410;29;20050;-70
2023/09/16 01:57:08;;;;;;;4.07;2.20;;;18.00;99.90;;;;;;4932484;28;20078;-70
2023/09/16 01:59:34;;;;;;;5.25;2.25;;;18.00;99.90;;;;;;4935269;29;20087;-70
2023/09/16 02:02:00;;;;;;;4.47;2.38;;;18.00;99.90;;;;;;4910289;29;20031;-70
2023/09/16 02:04:26;;;;;;;5.78;2.45;;;17.80;99.90;;;;;;4915104;29;20084;-70
2023/09/16 02:06:52;;;;;;;4.47;2.47;;;17.90;99.90;;;;;;4914136;29;20044;-69
2023/09/16 02:09:18;;;;;;;5.88;2.67;;;18.00;99.90;;;;;;4912856;29;20485;-70
2023/09/16 02:11:44;;;;;;;5.63;2.53;;;17.90;99.90;;;;;;4930055;29;20035;-70
2023/09/16 02:14:14;;;;;;;5.88;2.40;;;17.90;99.90;;;;;;4913272;29;20031;-70
2023/09/16 02:16:40;;;;;;;3.20;2.22;;;17.90;99.90;;;;;;4907575;29;20036;-70
2023/09/16 02:19:06;;;;;;;10.55;3.15;;;18.00;99.90;;;;;;4914188;29;20032;-70
2023/09/16 02:21:32;;;;;;;4.40;2.55;;;18.00;99.90;;;;;;4913601;29;20042;-70
2023/09/16 02:23:58;;;;;;;7.28;3.92;;;18.10;99.90;;;;;;4915257;29;20024;-69
2023/09/16 02:26:24;;;;;;;4.78;2.50;;;18.10;99.90;;;;;;4912122;29;20099;-70
2023/09/16 02:28:50;;;;;;;7.63;2.83;;;18.00;99.90;;;;;;4921974;29;20552;-70
2023/09/16 02:31:16;;;;;;;4.90;2.67;;;17.90;99.90;;;;;;4934889;29;20476;-70
2023/09/16 02:33:42;;;;;;;6.03;2.33;;;17.90;99.90;;;;;;4908443;29;20100;-70
2023/09/16 02:36:08;;;;;;;4.60;2.63;;;17.90;99.90;;;;;;4928670;29;20473;-70
2023/09/16 02:38:33;;;;;;;7.35;3.70;;;18.00;99.90;;;;;;4907000;29;20042;-70
2023/09/16 02:41:04;;;;;;;11.13;4.25;;;18.00;99.90;;;;;;4919520;29;20033;-70
2023/09/16 02:43:31;;;;;;;5.90;3.15;;;17.80;99.90;;;;;;4918555;29;20036;-70
2023/09/16 02:45:57;;;;;;;7.05;3.65;;;17.80;99.90;;;;;;4906247;29;20481;-70
2023/09/16 02:48:23;;;;;;;5.30;2.78;;;17.80;99.90;;;;;;4922708;29;20044;-68
2023/09/16 02:50:49;;;;;;;8.40;2.92;;;17.90;99.90;;;;;;4916144;29;20036;-70
2023/09/16 02:53:17;;;;;;;4.75;2.47;;;17.80;99.90;;;;;;4926930;29;20036;-70
2023/09/16 02:55:43;;;;;;;6.13;2.92;;;17.80;99.90;;;;;;4917673;29;20024;-70
2023/09/16 02:58:09;;;;;;;4.72;2.58;;;17.80;99.90;;;;;;4935465;29;20051;-69
2023/09/16 03:00:34;;;;;;;5.47;2.72;;;17.70;99.90;;;;;;4939657;28;20020;-70
2023/09/16 03:03:00;;;;;;;10.88;3.72;;;17.40;99.90;;;;;;4925676;29;20516;-70
2023/09/16 03:05:26;;;;;;;6.05;3.20;;;17.30;99.90;;;;;;4917956;29;20389;-70
2023/09/16 03:07:52;;;;;;;6.03;2.75;;;17.10;99.90;;;;;;4918424;29;20040;-70
2023/09/16 03:10:18;;;;;;;5.32;3.00;;;16.90;99.90;;;;;;4915615;29;20044;-70
2023/09/16 03:12:43;;;;;;;7.55;3.30;;;16.70;99.90;;;;;;4913559;29;20071;-70
2023/09/16 03:15:12;;;;;;;7.50;3.05;;;16.60;99.90;;;;;;4913860;29;20388;-70
2023/09/16 03:17:38;;;;;;;7.65;3.63;;;16.60;99.90;;;;;;4917918;29;20040;-69
2023/09/16 03:20:04;;;;;;;8.32;3.92;;;16.70;99.90;;;;;;4923746;29;20518;-69
2023/09/16 03:22:30;;;;;;;8.80;3.05;;;16.70;99.90;;;;;;4916766;29;20039;-70
2023/09/16 03:24:55;;;;;;;5.18;2.75;;;16.80;99.90;;;;;;4912458;29;20028;-70
2023/09/16 03:27:21;;;;;;;8.10;3.75;;;16.80;99.90;;;;;;4910868;29;20429;-70
2023/09/16 03:29:47;;;;;;;7.25;3.17;;;16.90;99.90;;;;;;4913135;29;20484;-70
2023/09/16 03:32:12;;;;;;;4.20;2.28;;;16.70;99.90;;;;;;4915796;29;20040;-70
2023/09/16 03:34:38;;;;;;;7.95;3.53;;;16.80;99.90;;;;;;4915059;29;20389;-70
2023/09/16 03:37:04;;;;;;;5.15;2.80;;;16.90;99.90;;;;;;4920445;29;20032;-70
2023/09/16 03:39:29;;;;;;;7.47;3.25;;;16.80;99.90;;;;;;4913711;29;20540;-71
2023/09/16 03:41:55;;;;;;;6.00;3.33;;;16.80;99.90;;;;;;4917857;29;20028;-69
2023/09/16 03:44:21;;;;;;;7.75;3.22;;;16.80;99.90;;;;;;4925863;29;20465;-69
2023/09/16 03:46:48;;;;;;;6.15;3.13;;;16.60;99.90;;;;;;4916531;29;20027;-70
2023/09/16 03:49:14;;;;;;;6.57;2.92;;;16.50;99.90;;;;;;4916816;29;20137;-70
2023/09/16 03:51:40;;;;;;;5.38;3.25;;;16.50;99.90;;;;;;4917569;29;20609;-70
2023/09/16 03:54:06;;;;;;;8.73;3.00;;;16.40;99.90;;;;;;4913200;29;20439;-72
2023/09/16 03:56:33;;;;;;;6.38;3.03;;;16.30;99.90;;;;;;4916798;29;20072;-70
2023/09/16 03:58:59;;;;;;;5.60;3.22;;;16.40;99.90;;;;;;4925076;29;20073;-70
2023/09/16 04:01:25;;;;;;;7.60;3.28;;;16.50;99.90;;;;;;4916152;29;20485;-70
2023/09/16 04:03:51;;;;;;;7.60;3.35;;;16.70;99.90;;;;;;4910287;29;20111;-71
2023/09/16 04:06:17;;;;;;;6.22;2.95;;;16.80;99.90;;;;;;4932727;29;20080;-71
2023/09/16 04:08:42;;;;;;;7.38;3.28;;;16.80;99.90;;;;;;4932271;29;20048;-71
2023/09/16 04:11:09;;;;;;;6.25;3.08;;;16.80;99.90;;;;;;4924980;29;20036;-71
2023/09/16 04:13:35;;;;;;;4.85;2.63;;;16.80;99.90;;;;;;4915923;29;20031;-71
2023/09/16 04:16:01;;;;;;;6.32;3.05;;;16.80;99.90;;;;;;4942720;28;20084;-71
2023/09/16 04:18:27;;;;;;;7.47;2.95;;;16.80;99.90;;;;;;4916246;29;20035;-71
2023/09/16 04:20:56;;;;;;;8.27;2.92;;;16.80;99.90;;;;;;4916994;29;20032;-71
2023/09/16 04:23:23;;;;;;;6.75;3.28;;;16.80;99.90;;;;;;4938675;28;20032;-71
2023/09/16 04:26:00;;;;;;;11.60;3.85;;;16.80;99.90;;;;;;4909624;29;20031;-71
2023/09/16 04:28:26;;;;;;;8.02;3.53;;;16.80;99.90;;;;;;4916576;29;20043;-71
2023/09/16 04:30:53;;;;;;;6.82;3.38;;;16.70;99.90;;;;;;4916936;29;20040;-70
2023/09/16 04:33:20;;;;;;;6.45;2.75;;;16.70;99.90;;;;;;4915993;29;20040;-70
2023/09/16 04:35:49;;;;;;;6.20;3.25;;;16.80;99.90;;;;;;4932416;29;20102;-70
2023/09/16 04:38:17;;;;;;;6.75;2.97;;;16.70;99.90;;;;;;4922982;29;20115;-70
2023/09/16 04:40:44;;;;;;;6.22;3.38;;;16.70;99.90;;;;;;4893466;29;20452;-70
2023/09/16 04:43:13;;;;;;;8.95;4.05;;;16.70;99.90;;;;;;4930404;29;20032;-70
2023/09/16 04:45:44;;;;;;;8.93;3.53;;;16.70;99.90;;;;;;4913674;29;20063;-70
2023/09/16 04:48:13;;;;;;;4.88;2.92;;;16.60;99.90;;;;;;4915379;29;20388;-70
2023/09/16 04:50:43;;;;;;;7.97;3.78;;;16.60;99.90;;;;;;4916171;29;20437;-70
2023/09/16 04:53:09;;;;;;;5.63;3.23;;;16.60;99.90;;;;;;4923390;29;20502;-70
2023/09/16 04:55:36;;;;;;;5.50;3.38;;;16.60;99.90;;;;;;4914955;29;20040;-69
2023/09/16 04:58:02;;;;;;;9.43;3.33;;;16.60;99.90;;;;;;4915643;29;20476;-69
2023/09/16 05:00:33;;;;;;;6.18;3.35;;;16.50;99.90;;;;;;4916259;29;20039;-69
2023/09/16 05:02:59;;;;;;;6.72;2.78;;;16.50;99.90;;;;;;4919818;29;20127;-69
2023/09/16 05:05:25;;;;;;;10.18;3.63;;;16.50;99.90;;;;;;4938127;28;20035;-70
2023/09/16 05:07:51;;;;;;;5.93;3.25;;;16.40;99.90;;;;;;4911241;29;20500;-69
2023/09/16 05:10:17;;;;;;;7.25;3.30;;;16.30;99.90;;;;;;4915253;29;20476;-70
2023/09/16 05:12:42;;;;;;;8.45;3.90;;;16.30;99.90;;;;;;4917874;29;20102;-70
2023/09/16 05:15:10;;;;;;;7.85;3.40;;;16.20;99.90;;;;;;4921366;29;20409;-70
2023/09/16 05:17:37;;;;;;;10.30;3.20;;;16.20;99.90;;;;;;4903960;29;20051;-70
2023/09/16 05:20:04;;;;;;;7.35;3.10;;;16.30;99.90;;;;;;4913273;29;20040;-69
2023/09/16 05:22:30;;;;;;;5.60;2.70;;;16.40;99.90;;;;;;4937178;28;20500;-70
2023/09/16 05:24:56;;;;;;;7.13;3.10;;;16.20;99.90;;;;;;4914963;29;20056;-70
2023/09/16 05:27:22;;;;;;;7.47;4.20;;;16.20;99.90;;;;;;4915503;29;20065;-70
2023/09/16 05:29:54;;;;;;;6.75;3.08;;;16.20;99.90;;;;;;4912295;29;20100;-70
2023/09/16 05:32:20;;;;;;;3.97;2.50;;;16.30;99.90;;;;;;4932021;29;20036;-70
2023/09/16 05:34:46;;;;;;;8.20;3.03;;;16.40;99.90;;;;;;4939344;28;20116;-70
2023/09/16 05:37:12;;;;;;;7.50;3.22;;;16.40;99.90;;;;;;4915441;29;20485;-71
2023/09/16 05:39:38;;;;;;;5.45;2.95;;;16.50;99.90;;;;;;4915906;29;20030;-70
2023/09/16 05:42:04;;;;;;;5.88;2.83;;;16.60;99.90;;;;;;4915865;29;20032;-71
2023/09/16 05:44:30;;;;;;;5.60;2.88;;;16.60;99.90;;;;;;4936287;29;20040;-69
2023/09/16 05:46:55;;;;;;;4.13;2.38;;;16.60;99.90;;;;;;4909129;29;20092;-70
2023/09/16 05:49:21;;;;;;;4.80;2.85;;;16.60;99.90;;;;;;4914219;29;20028;-70
2023/09/16 05:51:47;;;;;;;4.47;2.42;;;16.70;99.90;;;;;;4938924;28;20099;-70
2023/09/16 05:54:14;;;;;;;5.85;2.70;;;16.70;99.90;;;;;;4915035;29;20190;-70
2023/09/16 05:56:42;;;;;;;5.72;3.00;;;16.70;99.90;;;;;;4907342;29;20083;-70
2023/09/16 05:59:08;;;;;;;6.25;3.17;;;16.80;99.90;;;;;;4913615;29;20036;-69
2023/09/16 06:01:35;;;;;;;5.50;2.70;;;16.80;99.90;;;;;;4913036;29;20357;-71
2023/09/16 06:04:01;;;;;;;5.32;2.80;;;16.80;99.90;;;;;;4912945;29;20044;-70
2023/09/16 06:06:27;;;;;;;10.57;3.80;;;16.80;99.90;;;;;;4943661;29;20421;-70
2023/09/16 06:08:53;;;;;;;7.55;3.88;;;16.80;99.90;;;;;;4912866;29;20036;-71
2023/09/16 06:11:18;;;;;;;6.72;3.10;;;16.80;99.90;;;;;;4914686;29;20032;-70
2023/09/16 06:13:44;;;;;;;5.60;3.38;;;16.90;99.90;;;;;;4912629;29;20056;-70
2023/09/16 06:16:10;;;;;;;5.15;2.67;;;16.90;99.90;;;;;;4914318;29;20111;-69
2023/09/16 06:18:36;;;;;;;7.00;3.60;;;17.00;99.90;;;;;;4912966;29;20113;-69
2023/09/16 06:21:03;;;;;;;7.60;3.35;;;17.10;99.90;;;;;;4929075;29;20547;-68
2023/09/16 06:23:29;;;;;;;6.60;3.22;;;17.10;99.90;;;;;;4912548;29;20473;-69
2023/09/16 06:25:55;;;;;;;5.20;2.63;;;17.20;99.90;;;;;;4897632;29;20036;-69
2023/09/16 06:28:20;;;;;;;7.45;3.67;;;17.20;99.90;;;;;;4912703;29;20508;-68
2023/09/16 06:30:46;;;;;;;7.18;3.13;;;17.30;99.90;;;;;;4913874;29;20528;-68
2023/09/16 06:33:12;;;;;;;7.32;3.58;;;17.30;99.90;;;;;;4913840;29;20032;-68
2023/09/16 06:35:37;;;;;;;6.00;3.03;;;17.30;99.90;;;;;;4914500;29;20416;-69
2023/09/16 06:38:03;;;;;;;6.45;2.80;;;17.30;99.90;;;;;;4914291;29;20183;-69
2023/09/16 06:40:29;;;;;;;5.78;2.83;;;17.40;99.90;;;;;;4935515;29;20033;-68
2023/09/16 06:42:55;;;;;;;4.60;3.08;;;17.50;99.90;;;;;;4897404;29;20462;-68
2023/09/16 06:45:20;;;;;;;7.63;3.15;;;17.50;99.90;;;;;;4913936;29;20032;-68
2023/09/16 06:47:46;;;;;;;6.18;2.75;;;17.50;99.90;;;;;;4914498;29;20032;-68
2023/09/16 06:50:12;;;;;;;8.95;3.10;;;17.60;99.90;;;;;;4913815;29;20539;-68
2023/09/16 06:52:38;;;;;;;7.85;3.08;;;17.70;99.90;;;;;;4914104;29;20496;-68
2023/09/16 06:55:05;;;;;;;6.60;2.95;;;17.70;99.90;;;;;;4911552;29;20040;-68
2023/09/16 06:57:31;;;;;;;5.95;2.80;;;17.70;99.90;;;;;;4913030;29;20036;-68
2023/09/16 06:59:57;;;;;;;7.28;3.17;;;17.70;99.90;;;;;;4914115;29;20043;-69
2023/09/16 07:02:23;;;;;;;6.15;3.13;;;17.70;99.90;;;;;;4914162;29;20032;-70
2023/09/16 07:04:50;;;;;;;5.32;2.88;;;17.80;99.90;;;;;;4913791;29;20111;-69
2023/09/16 07:07:16;;;;;;;10.18;2.80;;;17.90;99.90;;;;;;4904753;29;20036;-69
2023/09/16 07:09:42;;;;;;;3.72;2.40;;;17.90;99.90;;;;;;4905896;29;20465;-69
2023/09/16 07:12:08;;;;;;;7.97;3.05;;;17.80;99.90;;;;;;4911662;29;20037;-70
2023/09/16 07:14:37;;;;;;;8.00;2.42;;;17.90;99.90;;;;;;4928199;29;20551;-70
2023/09/16 07:17:04;;;;;;;6.07;2.92;;;17.90;99.90;;;;;;4913137;29;20444;-70
2023/09/16 07:19:31;;;;;;;4.32;2.65;;;18.00;99.90;;;;;;4912212;29;20448;-69
2023/09/16 07:21:57;;;;;;;8.98;3.53;;;18.10;99.90;;;;;;4913795;29;20148;-70
2023/09/16 07:24:23;;;;;;;5.15;2.88;;;18.20;99.90;;;;;;4908962;29;20500;-69
2023/09/16 07:26:49;;;;;;;8.25;2.88;;;18.30;99.90;;;;;;4913420;29;20032;-69
2023/09/16 07:29:19;;;;;;;5.25;3.08;;;18.40;99.90;;;;;;4916060;29;20028;-70
2023/09/16 07:31:45;;;;;;;5.47;3.08;;;18.40;99.90;;;;;;4916075;29;20488;-69
2023/09/16 07:34:11;;;;;;;6.00;2.80;;;18.50;99.90;;;;;;4917195;29;20036;-70
2023/09/16 07:36:37;;;;;;;7.82;3.40;;;18.60;99.90;;;;;;4917353;29;20032;-70
2023/09/16 07:39:02;;;;;;;6.10;2.63;;;18.50;99.90;;;;;;4917087;29;20036;-70
2023/09/16 07:41:28;;;;;;;4.30;2.40;;;18.70;99.90;;;;;;4916073;29;20028;-69
2023/09/16 07:43:54;;;;;;;10.57;3.45;;;18.80;99.90;;;;;;4917056;29;20032;-70
2023/09/16 07:46:20;;;;;;;8.52;2.88;;;19.00;99.90;;;;;;4917231;29;20032;-70
2023/09/16 07:48:46;;;;;;;5.05;3.05;;;19.10;99.90;;;;;;4916191;29;20044;-70
2023/09/16 07:51:12;;;;;;;4.95;2.70;;;19.20;99.90;;;;;;4917466;29;20660;-70
2023/09/16 07:53:37;;;;;;;6.82;3.35;;;19.20;99.90;;;;;;4916737;29;20032;-70
2023/09/16 07:56:03;;;;;;;5.07;2.67;;;19.30;99.90;;;;;;4915946;29;20127;-69
2023/09/16 07:58:29;;;;;;;6.25;2.60;;;19.50;99.90;;;;;;4916981;29;20047;-70
2023/09/16 08:00:55;;;;;;;5.75;3.00;;;19.60;99.90;;;;;;4917164;29;20059;-69
2023/09/16 08:03:22;;;;;;;9.52;3.17;;;19.50;99.90;;;;;;4916918;29;20040;-69
2023/09/16 08:05:48;;;;;;;6.80;2.70;;;19.60;99.90;;;;;;4917228;29;20023;-69
2023/09/16 08:08:14;;;;;;;4.82;2.80;;;19.70;99.90;;;;;;4915647;29;20468;-70
2023/09/16 08:10:44;;;;;;;7.47;3.28;;;19.70;99.90;;;;;;4908955;29;20042;-69
2023/09/16 08:13:10;;;;;;;6.53;3.40;;;19.80;99.90;;;;;;4915709;29;20045;-69
2023/09/16 08:15:35;;;;;;;8.10;3.33;;;19.90;99.90;;;;;;4916206;29;20028;-69
2023/09/16 08:18:01;;;;;;;6.15;3.40;;;20.10;99.90;;;;;;4916225;29;20060;-68
2023/09/16 08:20:27;;;;;;;8.63;4.20;;;20.20;99.90;;;;;;4916326;29;20381;-69
2023/09/16 08:22:52;;;;;;;10.40;3.95;;;20.30;99.90;;;;;;4914934;29;20039;-69
2023/09/16 08:25:19;;;;;;;8.40;3.50;;;20.50;99.90;;;;;;4916160;29;20076;-69
2023/09/16 08:27:44;;;;;;;6.05;3.10;;;20.50;99.90;;;;;;4916661;29;20032;-68
2023/09/16 08:30:11;;;;;;;7.32;4.15;;;20.60;99.90;;;;;;4915183;29;20028;-68
2023/09/16 08:32:38;;;;;;;7.25;3.67;;;20.70;99.90;;;;;;4915921;29;20082;-69
2023/09/16 08:35:06;;;;;;;11.10;4.40;;;20.80;99.90;;;;;;4916347;29;20047;-69
2023/09/16 08:37:35;;;;;;;10.15;4.53;;;21.00;99.90;;;;;;4916034;29;20074;-69
2023/09/16 08:40:01;;;;;;;7.72;3.55;;;21.10;99.90;;;;;;4916137;29;20039;-69
2023/09/16 08:42:45;;;;;;;15.82;3.92;;;21.10;99.90;;;;;;4914723;29;20079;-69
2023/09/16 08:45:15;;;;;;;11.38;3.85;;;20.80;99.90;;;;;;4915806;29;20058;-69
2023/09/16 08:47:55;;;;;;;8.43;4.25;;;21.00;99.90;;;;;;4904533;29;20028;-69
2023/09/16 08:50:22;;;;;;;10.13;4.03;;;21.10;99.90;;;;;;4925890;29;20648;-70
2023/09/16 08:52:57;;;;;;;11.57;4.43;;;21.30;99.90;;;;;;4918691;29;20811;-70
2023/09/16 08:55:23;;;;;;;7.15;4.15;;;21.60;99.90;;;;;;4915272;29;20445;-70
2023/09/16 08:58:00;;;;;;;10.23;3.78;;;21.70;99.90;;;;;;4910654;29;20047;-70
2023/09/16 09:00:26;;;;;;;10.32;4.28;;;21.80;99.90;;;;;;4923164;29;20079;-69
2023/09/16 09:02:53;;;;;;;7.05;3.70;;;21.60;99.90;;;;;;4914227;29;20135;-69
2023/09/16 09:05:23;;;;;;;7.38;3.70;;;21.90;99.90;;;;;;4913851;29;20020;-69
2023/09/16 09:07:49;;;;;;;12.10;3.35;;;22.00;99.90;;;;;;4915661;29;20159;-69
2023/09/16 09:10:15;;;;;;;10.68;3.78;;;22.00;99.90;;;;;;4914280;29;20059;-72
2023/09/16 09:12:43;;;;;;;7.43;3.75;;;22.10;99.90;;;;;;4901911;29;20099;-72
2023/09/16 09:15:14;;;;;;;8.93;4.30;;;21.80;99.90;;;;;;4916432;29;20048;-72
2023/09/16 09:18:02;;;;;;;6.05;3.40;;;22.10;99.90;;;;;;4900040;29;20035;-72
2023/09/16 09:20:28;;;;;;;6.70;3.47;;;22.30;99.90;;;;;;4923321;29;20036;-72
2023/09/16 09:22:56;;;;;;;6.45;3.75;;;22.50;99.90;;;;;;4921414;29;20040;-74
2023/09/16 09:25:23;;;;;;;8.13;3.80;;;22.70;99.90;;;;;;4922740;29;20032;-74
2023/09/16 09:27:50;;;;;;;5.80;2.92;;;22.90;99.90;;;;;;4907006;29;20035;-74
2023/09/16 09:30:24;;;;;;;7.80;3.65;;;23.00;99.90;;;;;;4918905;29;20051;-73
2023/09/16 09:32:50;;;;;;;9.25;3.53;;;23.30;99.90;;;;;;4913879;29;20047;-74
2023/09/16 09:35:22;;;;;;;6.18;3.40;;;23.40;99.90;;;;;;4938576;29;20043;-74
2023/09/16 09:37:48;;;;;;;6.53;3.10;;;23.50;99.90;;;;;;4908126;29;20028;-73
2023/09/16 09:40:14;;;;;;;7.32;3.22;;;23.40;99.90;;;;;;4914576;29;20037;-73
2023/09/16 09:42:48;;;;;;;7.90;2.90;;;23.40;99.90;;;;;;4905510;29;20134;-73
2023/09/16 09:45:17;;;;;;;6.65;3.40;;;23.70;99.90;;;;;;4913809;29;20048;-73
2023/09/16 09:47:44;;;;;;;5.25;2.83;;;23.90;99.90;;;;;;4913388;29;20028;-73
2023/09/16 09:50:16;;;;;;;6.45;3.47;;;24.10;99.90;;;;;;4909145;29;20393;-72
2023/09/16 09:52:53;;;;;;;12.02;3.78;;;24.20;99.90;;;;;;4914673;29;20028;-73
2023/09/16 09:55:27;;;;;;;7.65;3.20;;;24.10;99.90;;;;;;4926097;29;20099;-72
2023/09/16 09:57:53;;;;;;;6.05;3.17;;;24.30;99.90;;;;;;4912897;29;20043;-68
2023/09/16 10:00:22;;;;;;;7.28;3.53;;;24.60;99.90;;;;;;4929259;29;20028;-69
2023/09/16 10:02:49;;;;;;;8.00;2.97;;;24.70;99.90;;;;;;4914038;29;20103;-68
2023/09/16 10:05:17;;;;;;;6.65;3.58;;;24.80;99.90;;;;;;4914833;29;20050;-69
2023/09/16 10:07:44;;;;;;;8.05;3.05;;;24.80;99.90;;;;;;4907665;29;20044;-69
2023/09/16 10:10:24;;;;;;;5.35;2.72;;;25.10;99.90;;;;;;4914803;29;20039;-68
2023/09/16 10:12:59;;;;;;;5.93;3.15;;;25.20;99.90;;;;;;4906255;29;20044;-67
2023/09/16 10:15:38;;;;;;;21.90;3.42;;;25.30;99.90;;;;;;4923129;29;20427;-68
2023/09/16 10:18:07;;;;;;;5.60;3.33;;;25.50;99.90;;;;;;4927487;29;20036;-71
2023/09/16 10:20:39;;;;;;;6.28;3.00;;;25.50;99.90;;;;;;4928075;29;20036;-70
2023/09/16 10:23:05;;;;;;;10.23;3.50;;;25.80;99.90;;;;;;4905505;29;20056;-69
2023/09/16 10:25:33;;;;;;;8.18;3.72;;;25.70;99.90;;;;;;4913560;29;20127;-69
2023/09/16 10:28:03;;;;;;;6.38;3.28;;;25.80;99.90;;;;;;4914053;29;20042;-69
2023/09/16 10:30:31;;;;;;;7.40;3.10;;;25.70;99.90;;;;;;4913313;29;20074;-69
2023/09/16 10:33:09;;;;;;;6.57;3.85;;;26.10;99.90;;;;;;4910576;29;20036;-69
2023/09/16 10:35:41;;;;;;;9.57;3.70;;;26.30;99.90;;;;;;4926077;29;20433;-75
2023/09/16 10:38:11;;;;;;;9.77;3.17;;;26.20;99.90;;;;;;4913274;29;20138;-71
2023/09/16 10:40:38;;;;;;;7.30;3.00;;;26.40;99.90;;;;;;4906315;29;20040;-73
2023/09/16 10:43:06;;;;;;;8.10;3.10;;;26.20;99.90;;;;;;4913180;29;20035;-72
2023/09/16 10:45:32;;;;;;;6.00;3.25;;;26.40;99.90;;;;;;4906617;29;20500;-70
2023/09/16 10:48:01;;;;;;;6.97;3.20;;;26.40;99.90;;;;;;4909119;29;20127;-67
2023/09/16 10:50:35;;;;;;;5.50;3.08;;;26.30;99.90;;;;;;4903278;29;20036;-61
2023/09/16 10:53:36;;;;;;;6.10;3.45;;;26.90;99.90;;;;;;4909539;29;20044;-61
2023/09/16 10:56:24;;;;;;;4.57;2.35;;;27.20;99.90;;;;;;4909932;29;20055;-60
2023/09/16 10:59:07;;;;;;;8.18;2.80;;;27.70;99.50;;;;;;4908292;29;20479;-67
2023/09/16 11:01:47;;;;;;;5.50;2.95;;;27.70;99.00;;;;;;4914079;29;20079;-67
2023/09/16 11:04:17;;;;;;;6.97;2.93;;;27.20;99.50;;;;;;4915887;29;20040;-67
2023/09/16 11:06:47;;;;;;;5.78;2.70;;;27.50;99.30;;;;;;4917438;29;20036;-68
2023/09/16 11:09:15;;;;;;;4.65;2.20;;;28.10;98.70;;;;;;4908291;29;20489;-67
2023/09/16 11:11:41;;;;;;;4.72;2.50;;;28.20;98.30;;;;;;4931541;29;20119;-68
2023/09/16 11:14:09;;;;;;;5.55;2.42;;;28.10;97.60;;;;;;4912585;29;20099;-67
2023/09/16 11:16:52;;;;;;;6.38;2.83;;;28.10;97.90;;;;;;4916156;29;20067;-67
2023/09/16 11:19:25;;;;;;;5.35;2.45;;;28.60;97.10;;;;;;4915558;29;20083;-67
2023/09/16 11:21:55;;;;;;;5.28;2.40;;;28.50;96.80;;;;;;4916828;29;20063;-67
2023/09/16 11:24:21;;;;;;;7.53;2.67;;;29.00;96.20;;;;;;4915586;29;20072;-67
2023/09/16 11:26:51;;;;;;;4.50;2.70;;;28.70;96.20;;;;;;4914312;29;20429;-67
2023/09/16 11:29:24;;;;;;;4.85;2.50;;;28.60;96.00;;;;;;4930215;29;20035;-67
2023/09/16 11:31:50;;;;;;;5.93;2.70;;;28.80;96.60;;;;;;4911898;29;20437;-67
2023/09/16 11:34:22;;;;;;;4.60;2.00;;;28.90;95.50;;;;;;4931209;29;20032;-67
2023/09/16 11:36:57;;;;;;;5.32;2.58;;;28.90;95.70;;;;;;4916509;29;20044;-67
2023/09/16 11:39:42;;;;;;;5.30;2.50;;;28.80;97.20;;;;;;4917083;29;20500;-67
2023/09/16 11:42:10;;;;;;;5.97;2.53;;;29.60;95.10;;;;;;4915938;29;20097;-67
2023/09/16 11:44:37;;;;;;;4.78;2.58;;;28.60;95.70;;;;;;4916377;29;20036;-69
2023/09/16 11:47:04;;;;;;;4.10;2.30;;;28.90;95.50;;;;;;4914418;29;20050;-68
2023/09/16 11:49:34;;;;;;;4.57;2.47;;;29.30;95.10;;;;;;4931279;29;20082;-67
2023/09/16 11:52:01;;;;;;;5.20;2.20;;;29.40;94.60;;;;;;4914022;29;20067;-68
2023/09/16 11:54:27;;;;;;;3.30;2.10;;;29.80;94.80;;;;;;4915138;29;20046;-67
2023/09/16 11:56:54;;;;;;;4.40;2.28;;;29.40;94.50;;;;;;4914264;29;20805;-68
2023/09/16 11:59:20;;;;;;;4.35;2.35;;;30.20;94.60;;;;;;4914716;29;20112;-68
2023/09/16 12:01:48;;;;;;;6.22;2.22;;;30.90;93.80;;;;;;4914415;29;20109;-68
2023/09/16 12:04:17;;;;;;;4.50;2.33;;;31.50;92.30;;;;;;4915839;29;20039;-68
2023/09/16 12:06:44;;;;;;;3.83;2.28;;;32.50;91.00;;;;;;4912927;29;20028;-68
2023/09/16 12:09:17;;;;;;;4.25;2.13;;;32.50;90.10;;;;;;4915938;29;20449;-68
2023/09/16 12:11:49;;;;;;;4.07;1.83;;;31.30;91.10;;;;;;4930203;29;20392;-68
2023/09/16 12:14:15;;;;;;;5.78;1.90;;;31.90;90.10;;;;;;4906955;29;20043;-68
2023/09/16 12:16:41;;;;;;;3.42;1.73;;;32.80;87.30;;;;;;4913496;29;20028;-68
2023/09/16 12:19:06;;;;;;;3.42;1.80;;;33.40;84.50;;;;;;4915309;29;20047;-68
2023/09/16 12:21:34;;;;;;;3.10;1.58;;;35.00;81.10;;;;;;4914564;29;20040;-68
2023/09/16 12:24:00;;;;;;;6.03;1.60;;;34.40;78.50;;;;;;4914747;29;20039;-68
2023/09/16 12:26:25;;;;;;;3.83;1.75;;;33.40;79.00;;;;;;4915866;29;20365;-68
2023/09/16 12:28:51;;;;;;;5.00;1.70;;;32.50;82.60;;;;;;4914585;29;20028;-67
2023/09/16 12:31:22;;;;;;;8.20;2.40;;;34.10;80.30;;;;;;4915643;29;20076;-67
2023/09/16 12:33:53;;;;;;;2.83;1.80;;;32.00;80.50;;;;;;4929847;29;20032;-67
2023/09/16 12:36:27;;;;;;;3.67;1.90;;;32.70;80.50;;;;;;4913327;29;20051;-67
2023/09/16 12:38:54;;;;;;;3.22;1.60;;;33.70;78.90;;;;;;4930447;29;20048;-68
2023/09/16 12:41:21;;;;;;;3.83;1.83;;;34.90;76.30;;;;;;4911183;29;20067;-68
2023/09/16 12:43:48;;;;;;;3.58;1.67;;;33.30;77.20;;;;;;4913284;29;20132;-67
2023/09/16 12:46:17;;;;;;;3.83;1.70;;;34.80;75.80;;;;;;4929012;29;20067;-68
2023/09/16 12:48:50;;;;;;;3.38;1.50;;;34.20;77.10;;;;;;4914635;29;20099;-68